Aviation Digital Data Service (ADDS)

Output produced by METARs form (0124 UTC 28 July 2015)
found at http://www.aviationweather.gov/adds/metars/
 
KMDT 280056Z 13003KT 9SM FEW040 SCT250 25/22 A2998 RMK AO2 SLP150 T02500222
KMDT 272356Z 00000KT 8SM FEW040 SCT250 27/22 A2997 RMK AO2 SLP147 T02720222 10300 20267 53001
KMDT 272256Z 00000KT 9SM FEW045 SCT250 29/22 A2996 RMK AO2 SLP143 T02890222
KMDT 272156Z 14004KT 10SM SCT047TCU BKN250 29/21 A2996 RMK AO2 SLP144 TCU VC SE T02890211
KMDT 272056Z 19003KT 10SM SCT033 BKN042 BKN250 29/22 A2997 RMK AO2 SLP146 T02940217 58012
KMDT 271956Z VRB03KT 10SM SCT026 SCT045 BKN070 BKN200 29/22 A2998 RMK AO2 SLP149 T02940217
KMDT 271856Z 00000KT 9SM BKN044 BKN070 OVC200 28/21 A3000 RMK AO2 SLP156 T02830206
KMDT 271756Z 00000KT 6SM HZ FEW022 BKN030 OVC036 27/21 A3000 RMK AO2 SLP158 T02720211 10278 20222 58005
KMDT 271656Z 00000KT 5SM HZ FEW030 BKN039 28/21 A3001 RMK AO2 SLP160 T02780211
KMDT 271556Z 16003KT 8SM SCT019 BKN032 OVC039 26/21 A3002 RMK AO2 SLP162 T02610211
KMDT 271516Z 18004KT 8SM BKN019 OVC031 25/21 A3002 RMK AO2 T02500206
KMDT 271456Z 01003KT 8SM SCT018 OVC031 25/21 A3002 RMK AO2 SLP163 T02500206 51008
KMDT 271447Z 01003KT 8SM SCT013 BKN018 OVC031 25/21 A3002 RMK AO2 T02500206
KMDT 271417Z 01003KT 8SM BKN013 BKN018 OVC031 24/20 A3001 RMK AO2 T02440200
KMDT 271356Z 00000KT 8SM SCT031 BKN100 24/20 A3001 RMK AO2 SLP160 T02440200
KMDT 271256Z 00000KT 7SM FEW008 OVC031 23/20 A3001 RMK AO2 SLP161 T02330200
KMDT 271240Z 00000KT 7SM SCT008 OVC032 23/21 A3001 RMK AO2 T02280206
KMDT 271156Z 00000KT 8SM BKN006 22/20 A2999 RMK AO2 SLP155 60014 70040 T02220200 10222 20211 53007
KMDT 271148Z 00000KT 8SM SCT006 22/20 A2999 RMK AO2 T02220200
KMDT 271103Z 12004KT 9SM BKN007 21/19 A2999 RMK AO2 T02110194
KMDT 271056Z 13003KT 10SM SCT007 BKN013 21/19 A2999 RMK AO2 SLP152 T02110194
KMDT 271045Z 11003KT 9SM SCT006 BKN013 21/19 A2998 RMK AO2 T02110194
KMDT 270956Z 04003KT 10SM BKN011 21/19 A2998 RMK AO2 SLP149 T02110194
KMDT 270949Z 08004KT 10SM BKN010 21/19 A2997 RMK AO2 T02110194
KMDT 270856Z 06004KT 9SM BKN008 OVC015 22/20 A2997 RMK AO2 SLP148 60014 T02170200 55003
KMDT 270756Z 10004KT 10SM SCT008 BKN012 OVC160 22/20 A2996 RMK AO2 SLP145 T02170200
KMDT 270656Z 00000KT 10SM FEW013 SCT050 OVC140 22/19 A2997 RMK AO2 RAE24 SLP146 P0014 T02170194
KMDT 270556Z VRB05KT 6SM RA FEW035 BKN050 BKN150 OVC200 22/20 A2998 RMK AO2 RAE02B45 SLP151 FRQ LTG DSNT S P0007 60026 T02170200 10283 20217 51012
KMDT 270456Z 00000KT 10SM -RA SCT007 SCT016 OVC110 23/21 A2997 RMK AO2 TSE56 SLP146 TS MOVD S FRQ LTG DSNT E-S-SW P0018 T02280211 403170211
KMDT 270429Z 00000KT 4SM TSRA FEW016 BKN030CB OVC090 23/21 A2997 RMK AO2 FRQ LTGICCCCA E-OHD-W TS E-OHD-W MOV SE P0017 T02280211
KMDT 270413Z 29009KT 3SM R13/6000VP6000FT TSRA FEW011 BKN028CB OVC045 23/21 A2997 RMK AO2 CONS LTGCCCACG OHD AND ALQDS TS OHD AND ALQDS MOV E P0014 T02280211
KMDT 270406Z 24008KT 1 3/4SM R13/6000VP6000FT TSRA BR SCT011 BKN030 OVC040 23/21 A2997 RMK AO2 CONS LTGCCCACG OHD AND ALQDS TS OHD AND ALQDS MOV E P0008 T02280211
KMDT 270356Z 28009KT 6SM TSRA SCT011 BKN030CB OVC080 24/21 A2998 RMK AO2 RAB14 SLP149 CONS LTGICCCCG SW-OHD-N TS SW-OHD-N MOV E-SE P0001 T02390211
KMDT 270256Z 14004KT 10SM TS SCT048CB SCT065 OVC200 27/21 A2995 RMK AO2 TSE22B44 SLP139 FRQ LTGICCC VC NW-N TS VC NW-N MOV E 60000 T02670206 53004
KMDT 270245Z 15004KT 10SM TS SCT048CB SCT065 OVC200 27/21 A2994 RMK AO2 TSE22B44 OCNL LTGICCC VC NW-NE TS VC NW-NE MOV E T02670206
KMDT 270223Z 14006KT 10SM FEW060 SCT085 BKN190 OVC250 26/20 A2995 RMK AO2 TSE22 TS MOVD E T02610200
KMDT 270156Z VRB03KT 10SM TS SCT047CB SCT070 BKN170 OVC250 27/21 A2994 RMK AO2 TSE13B38 SLP138 OCNL LTGICCCCG NE TS NE MOV E-SE T02670206
KMDT 270144Z VRB04KT 10SM TS SCT047CB SCT060 BKN170 OVC250 27/21 A2995 RMK AO2 TSE13B38 OCNL LTGICCG OHD-N TS OHD-N MOV E T02720206
KMDT 270119Z 17008KT 10SM FEW047 SCT060 BKN170 OVC250 27/21 A2993 RMK AO2 TSE13 TS MOVD NE T02720211
KMDT 270056Z 17007KT 10SM TS SCT045CB BKN090 BKN170 OVC250 28/21 A2993 RMK AO2 RAE04B41E55 TSE27B45 SLP134 OCNL LTGICCG VC NW-N TS VC NW-N MOV NE P0000 T02780211
KMDT 270051Z 17006KT 10SM -TSRA SCT045CB SCT090 BKN170 OVC250 28/21 A2994 RMK AO2 RAE04B41 TSE27B45 OCNL LTGICCG VC NW-N TS VC NW-N MOV NE P0000
KMDT 270033Z 16009KT 10SM FEW045 SCT065 BKN170 OVC250 28/21 A2993 RMK AO2 RAE04 TSE27 TS MOVD NE VCSH P0000 T02780211
KMDT 262356Z 18007KT 10SM -TSRA SCT045CB BKN160 OVC250 28/21 A2993 RMK AO2 RAB53 TSB56 SLP133 OCNL LTGICCG N TS N MOV E P0000 60000 T02830211 10317 20283 53001
KMDT 262256Z 14005KT 10SM SCT045 SCT065 BKN250 28/22 A2992 RMK AO2 SLP131 CB DSNT NW T02830217
KMDT 262156Z 14006KT 10SM SCT043 SCT065 BKN250 29/21 A2992 RMK AO2 SLP130 T02940211
KMDT 262056Z 19008G14KT 10SM SCT040 BKN065 BKN250 31/21 A2993 RMK AO2 SLP132 TCU DSNT SE T03110206 55008
KMDT 261956Z VRB06KT 10SM SCT038 BKN065 BKN250 31/21 A2993 RMK AO2 SLP132 T03060211
KMDT 261856Z 14008KT 10SM SCT042 SCT060 BKN080 BKN250 31/22 A2995 RMK AO2 SLP139 T03060217
KMDT 261756Z 15005KT 10SM FEW035 SCT045 BKN250 31/21 A2995 RMK AO2 SLP140 T03110206 10317 20233 58007
KMDT 261656Z 13007KT 10SM FEW040 SCT075 BKN250 30/20 A2996 RMK AO2 SLP144 T03000200
KMDT 261556Z 00000KT 10SM FEW080 SCT150 BKN250 29/19 A2997 RMK AO2 SLP148 T02890194
KMDT 261456Z 16003KT 10SM FEW080 SCT250 27/19 A2997 RMK AO2 SLP148 T02720189 58002
KMDT 261356Z 00000KT 10SM FEW080 SCT250 26/19 A2998 RMK AO2 SLP150 T02560189